sensor_id;sensor_type;location;lat;lon;timestamp;pressure;altitude;pressure_sealevel;temperature;humidity
48216;BME280;34005;48.844;10.098;2023-04-03T00:01:00;97377.19;;;4.57;60.77
48216;BME280;34005;48.844;10.098;2023-04-03T00:03:28;97373.78;;;4.57;60.64
48216;BME280;34005;48.844;10.098;2023-04-03T00:05:55;97370.25;;;4.58;60.63
48216;BME280;34005;48.844;10.098;2023-04-03T00:08:24;97370.25;;;4.58;60.27
48216;BME280;34005;48.844;10.098;2023-04-03T00:10:52;97368.59;;;4.57;60.46
48216;BME280;34005;48.844;10.098;2023-04-03T00:13:20;97365.31;;;4.54;60.90
48216;BME280;34005;48.844;10.098;2023-04-03T00:15:47;97369.44;;;4.57;60.77
48216;BME280;34005;48.844;10.098;2023-04-03T00:18:15;97366.59;;;4.60;61.10
48216;BME280;34005;48.844;10.098;2023-04-03T00:20:43;97366.47;;;4.62;60.72
48216;BME280;34005;48.844;10.098;2023-04-03T00:23:10;97367.28;;;4.62;60.41
48216;BME280;34005;48.844;10.098;2023-04-03T00:25:39;97373.84;;;4.66;60.28
48216;BME280;34005;48.844;10.098;2023-04-03T00:28:08;97372.91;;;4.67;60.35
48216;BME280;34005;48.844;10.098;2023-04-03T00:30:36;97367.59;;;4.69;60.12
48216;BME280;34005;48.844;10.098;2023-04-03T00:33:04;97371.97;;;4.68;59.85
48216;BME280;34005;48.844;10.098;2023-04-03T00:35:34;97371.38;;;4.65;59.91
48216;BME280;34005;48.844;10.098;2023-04-03T00:38:01;97366.47;;;4.62;59.92
48216;BME280;34005;48.844;10.098;2023-04-03T00:40:33;97371.88;;;4.59;59.68
48216;BME280;34005;48.844;10.098;2023-04-03T00:43:10;97361.69;;;4.57;59.78
48216;BME280;34005;48.844;10.098;2023-04-03T00:45:41;97367.56;;;4.59;60.28
48216;BME280;34005;48.844;10.098;2023-04-03T00:48:11;97373.38;;;4.61;61.87
48216;BME280;34005;48.844;10.098;2023-04-03T00:50:42;97364.81;;;4.61;60.41
48216;BME280;34005;48.844;10.098;2023-04-03T00:53:14;97364.97;;;4.59;60.35
48216;BME280;34005;48.844;10.098;2023-04-03T00:55:43;97370.00;;;4.61;60.30
48216;BME280;34005;48.844;10.098;2023-04-03T00:58:15;97373.53;;;4.60;60.01
48216;BME280;34005;48.844;10.098;2023-04-03T01:00:48;97365.09;;;4.58;60.16
48216;BME280;34005;48.844;10.098;2023-04-03T01:03:17;97369.31;;;4.59;60.06
48216;BME280;34005;48.844;10.098;2023-04-03T01:05:46;97368.38;;;4.60;59.85
48216;BME280;34005;48.844;10.098;2023-04-03T01:08:14;97370.25;;;4.58;59.89
48216;BME280;34005;48.844;10.098;2023-04-03T01:10:42;97369.56;;;4.56;59.79
48216;BME280;34005;48.844;10.098;2023-04-03T01:13:23;97363.19;;;4.60;59.74
48216;BME280;34005;48.844;10.098;2023-04-03T01:15:52;97362.25;;;4.61;59.81
48216;BME280;34005;48.844;10.098;2023-04-03T01:18:21;97361.53;;;4.59;59.62
48216;BME280;34005;48.844;10.098;2023-04-03T01:21:11;97366.84;;;4.57;59.52
48216;BME280;34005;48.844;10.098;2023-04-03T01:23:58;97361.81;;;4.56;59.61
48216;BME280;34005;48.844;10.098;2023-04-03T01:26:31;97366.84;;;4.57;59.39
48216;BME280;34005;48.844;10.098;2023-04-03T01:29:02;97361.00;;;4.55;59.32
48216;BME280;34005;48.844;10.098;2023-04-03T01:34:03;97369.34;;;4.47;59.32
48216;BME280;34005;48.844;10.098;2023-04-03T01:36:31;97367.84;;;4.45;59.52
48216;BME280;34005;48.844;10.098;2023-04-03T01:38:59;97369.84;;;4.41;59.28
48216;BME280;34005;48.844;10.098;2023-04-03T01:41:28;97374.31;;;4.39;60.05
48216;BME280;34005;48.844;10.098;2023-04-03T01:43:56;97373.38;;;4.40;59.53
48216;BME280;34005;48.844;10.098;2023-04-03T01:46:23;97371.72;;;4.39;59.52
48216;BME280;34005;48.844;10.098;2023-04-03T01:48:51;97376.91;;;4.39;59.51
48216;BME280;34005;48.844;10.098;2023-04-03T01:51:20;97379.38;;;4.41;59.51
48216;BME280;34005;48.844;10.098;2023-04-03T01:53:47;97367.97;;;4.43;59.32
48216;BME280;34005;48.844;10.098;2023-04-03T01:56:15;97373.94;;;4.44;59.47
48216;BME280;34005;48.844;10.098;2023-04-03T01:58:42;97372.56;;;4.40;59.80
48216;BME280;34005;48.844;10.098;2023-04-03T02:01:10;97374.31;;;4.39;60.02
48216;BME280;34005;48.844;10.098;2023-04-03T02:03:38;97373.50;;;4.39;59.54
48216;BME280;34005;48.844;10.098;2023-04-03T02:06:06;97381.38;;;4.37;59.27
48216;BME280;34005;48.844;10.098;2023-04-03T02:08:35;97377.28;;;4.34;59.45
48216;BME280;34005;48.844;10.098;2023-04-03T02:11:02;97367.09;;;4.33;59.16
48216;BME280;34005;48.844;10.098;2023-04-03T02:13:30;97369.66;;;4.33;59.62
48216;BME280;34005;48.844;10.098;2023-04-03T02:15:57;97366.50;;;4.29;59.43
48216;BME280;34005;48.844;10.098;2023-04-03T02:18:25;97374.94;;;4.31;59.96
48216;BME280;34005;48.844;10.098;2023-04-03T02:20:52;97368.72;;;4.34;59.51
48216;BME280;34005;48.844;10.098;2023-04-03T02:23:20;97366.81;;;4.36;59.29
48216;BME280;34005;48.844;10.098;2023-04-03T02:25:49;97367.63;;;4.37;58.97
48216;BME280;34005;48.844;10.098;2023-04-03T02:28:16;97363.97;;;4.39;60.09
48216;BME280;34005;48.844;10.098;2023-04-03T02:30:44;97365.97;;;4.47;59.00
48216;BME280;34005;48.844;10.098;2023-04-03T02:33:11;97369.34;;;4.47;58.46
48216;BME280;34005;48.844;10.098;2023-04-03T02:35:39;97373.72;;;4.47;58.19
48216;BME280;34005;48.844;10.098;2023-04-03T02:38:06;97368.66;;;4.45;57.75
48216;BME280;34005;48.844;10.098;2023-04-03T02:40:34;97373.13;;;4.43;57.71
48216;BME280;34005;48.844;10.098;2023-04-03T02:43:03;97369.84;;;4.41;57.43
48216;BME280;34005;48.844;10.098;2023-04-03T02:45:31;97363.88;;;4.41;57.38
48216;BME280;34005;48.844;10.098;2023-04-03T02:47:58;97369.84;;;4.41;57.04
48216;BME280;34005;48.844;10.098;2023-04-03T02:50:26;97367.97;;;4.43;58.43
48216;BME280;34005;48.844;10.098;2023-04-03T02:52:53;97372.31;;;4.43;57.99
48216;BME280;34005;48.844;10.098;2023-04-03T02:55:21;97371.25;;;4.45;59.26
48216;BME280;34005;48.844;10.098;2023-04-03T02:57:49;97367.47;;;4.49;58.47
48216;BME280;34005;48.844;10.098;2023-04-03T03:00:18;97375.91;;;4.51;57.16
48216;BME280;34005;48.844;10.098;2023-04-03T03:02:48;97372.53;;;4.51;57.96
48216;BME280;34005;48.844;10.098;2023-04-03T03:05:16;97375.66;;;4.54;57.52
48216;BME280;34005;48.844;10.098;2023-04-03T03:07:44;97382.91;;;4.61;58.99
48216;BME280;34005;48.844;10.098;2023-04-03T03:10:11;97377.63;;;4.62;57.47
48216;BME280;34005;48.844;10.098;2023-04-03T03:12:39;97378.44;;;4.63;57.45
48216;BME280;34005;48.844;10.098;2023-04-03T03:15:07;97373.03;;;4.66;57.39
48216;BME280;34005;48.844;10.098;2023-04-03T03:17:37;97371.28;;;4.66;56.85
48216;BME280;34005;48.844;10.098;2023-04-03T03:20:06;97369.75;;;4.64;56.81
48216;BME280;34005;48.844;10.098;2023-04-03T03:22:34;97370.47;;;4.66;56.66
48216;BME280;34005;48.844;10.098;2023-04-03T03:25:02;97378.44;;;4.63;56.20
48216;BME280;34005;48.844;10.098;2023-04-03T03:27:30;97370.97;;;4.60;56.54
48216;BME280;34005;48.844;10.098;2023-04-03T03:29:57;97371.88;;;4.59;56.21
48216;BME280;34005;48.844;10.098;2023-04-03T03:32:25;97366.28;;;4.53;55.97
48216;BME280;34005;48.844;10.098;2023-04-03T03:34:54;97358.91;;;4.49;55.97
48216;BME280;34005;48.844;10.098;2023-04-03T03:37:21;97365.97;;;4.47;55.88
48216;BME280;34005;48.844;10.098;2023-04-03T03:39:49;97366.06;;;4.45;56.38
48216;BME280;34005;48.844;10.098;2023-04-03T03:42:16;97367.72;;;4.46;58.47
48216;BME280;34005;48.844;10.098;2023-04-03T03:44:44;97364.19;;;4.47;57.62
48216;BME280;34005;48.844;10.098;2023-04-03T03:47:11;97365.00;;;4.48;58.02
48216;BME280;34005;48.844;10.098;2023-04-03T03:49:39;97360.69;;;4.48;58.07
48216;BME280;34005;48.844;10.098;2023-04-03T03:52:08;97371.00;;;4.48;57.20
48216;BME280;34005;48.844;10.098;2023-04-03T03:54:37;97369.25;;;4.49;57.18
48216;BME280;34005;48.844;10.098;2023-04-03T03:57:05;97369.25;;;4.49;56.92
48216;BME280;34005;48.844;10.098;2023-04-03T03:59:32;97369.94;;;4.51;58.24
48216;BME280;34005;48.844;10.098;2023-04-03T04:02:00;97371.00;;;4.48;57.10
48216;BME280;34005;48.844;10.098;2023-04-03T04:06:55;97364.69;;;4.41;56.73
48216;BME280;34005;48.844;10.098;2023-04-03T04:09:24;97371.72;;;4.39;56.61
48216;BME280;34005;48.844;10.098;2023-04-03T04:11:52;97368.72;;;4.34;56.64
48216;BME280;34005;48.844;10.098;2023-04-03T04:14:19;97380.81;;;4.33;56.60
48216;BME280;34005;48.844;10.098;2023-04-03T04:16:47;97379.03;;;4.34;56.87
48216;BME280;34005;48.844;10.098;2023-04-03T04:19:15;97374.84;;;4.33;56.62
48216;BME280;34005;48.844;10.098;2023-04-03T04:21:43;97381.63;;;4.34;56.58
48216;BME280;34005;48.844;10.098;2023-04-03T04:24:10;97369.19;;;4.28;56.84
48216;BME280;34005;48.844;10.098;2023-04-03T04:26:39;97374.03;;;4.21;56.73
48216;BME280;34005;48.844;10.098;2023-04-03T04:29:08;97374.28;;;4.18;57.11
48216;BME280;34005;48.844;10.098;2023-04-03T04:31:36;97371.94;;;4.15;57.25
48216;BME280;34005;48.844;10.098;2023-04-03T04:34:04;97373.97;;;4.11;57.15
48216;BME280;34005;48.844;10.098;2023-04-03T04:36:31;97373.97;;;4.11;57.42
48216;BME280;34005;48.844;10.098;2023-04-03T04:38:59;97368.91;;;4.10;57.48
48216;BME280;34005;48.844;10.098;2023-04-03T04:41:27;97375.97;;;4.08;57.37
48216;BME280;34005;48.844;10.098;2023-04-03T04:43:56;97371.16;;;4.03;56.73
48216;BME280;34005;48.844;10.098;2023-04-03T04:46:23;97379.16;;;4.00;57.24
48216;BME280;34005;48.844;10.098;2023-04-03T04:48:51;97377.06;;;3.94;57.45
48216;BME280;34005;48.844;10.098;2023-04-03T04:51:19;97376.25;;;3.94;57.67
48216;BME280;34005;48.844;10.098;2023-04-03T04:53:46;97380.34;;;3.96;57.36
48216;BME280;34005;48.844;10.098;2023-04-03T04:56:14;97379.16;;;4.00;57.57
48216;BME280;34005;48.844;10.098;2023-04-03T04:58:41;97379.72;;;4.04;58.19
48216;BME280;34005;48.844;10.098;2023-04-03T05:01:11;97379.84;;;4.02;57.65
48216;BME280;34005;48.844;10.098;2023-04-03T05:03:38;97386.91;;;4.00;57.40
48216;BME280;34005;48.844;10.098;2023-04-03T05:06:07;97381.75;;;4.00;57.36
48216;BME280;34005;48.844;10.098;2023-04-03T05:08:36;97385.94;;;4.01;57.72
48216;BME280;34005;48.844;10.098;2023-04-03T05:11:04;97387.59;;;4.02;57.42
48216;BME280;34005;48.844;10.098;2023-04-03T05:13:32;97386.06;;;4.00;58.81
48216;BME280;34005;48.844;10.098;2023-04-03T05:15:59;97385.00;;;4.02;59.90
48216;BME280;34005;48.844;10.098;2023-04-03T05:18:28;97388.28;;;4.04;59.00
48216;BME280;34005;48.844;10.098;2023-04-03T05:20:56;97394.50;;;4.02;58.28
48216;BME280;34005;48.844;10.098;2023-04-03T05:23:24;97393.94;;;3.98;58.08
48216;BME280;34005;48.844;10.098;2023-04-03T05:25:52;97393.38;;;3.95;57.80
48216;BME280;34005;48.844;10.098;2023-04-03T05:28:20;97395.84;;;3.96;59.60
48216;BME280;34005;48.844;10.098;2023-04-03T05:30:52;97401.44;;;4.01;58.15
48216;BME280;34005;48.844;10.098;2023-04-03T05:33:20;97401.69;;;3.98;57.66
48216;BME280;34005;48.844;10.098;2023-04-03T05:35:49;97398.88;;;3.90;58.42
48216;BME280;34005;48.844;10.098;2023-04-03T05:38:17;97405.22;;;3.86;58.47
48216;BME280;34005;48.844;10.098;2023-04-03T05:40:45;97402.53;;;3.87;58.29
48216;BME280;34005;48.844;10.098;2023-04-03T05:43:12;97405.94;;;3.88;58.31
48216;BME280;34005;48.844;10.098;2023-04-03T05:45:40;97410.38;;;3.86;58.37
48216;BME280;34005;48.844;10.098;2023-04-03T05:48:10;97408.75;;;3.85;58.94
48216;BME280;34005;48.844;10.098;2023-04-03T05:50:39;97406.84;;;3.87;58.78
48216;BME280;34005;48.844;10.098;2023-04-03T05:53:15;97411.47;;;3.83;58.43
48216;BME280;34005;48.844;10.098;2023-04-03T05:55:44;97405.13;;;3.76;58.18
48216;BME280;34005;48.844;10.098;2023-04-03T05:58:12;97412.50;;;3.69;58.79
48216;BME280;34005;48.844;10.098;2023-04-03T06:00:40;97423.19;;;3.65;59.06
48216;BME280;34005;48.844;10.098;2023-04-03T06:03:07;97425.91;;;3.63;59.06
48216;BME280;34005;48.844;10.098;2023-04-03T06:05:35;97415.34;;;3.66;58.92
48216;BME280;34005;48.844;10.098;2023-04-03T06:08:03;97406.66;;;3.67;59.38
48216;BME280;34005;48.844;10.098;2023-04-03T06:10:32;97420.84;;;3.73;59.29
48216;BME280;34005;48.844;10.098;2023-04-03T06:12:59;97416.38;;;3.75;58.96
48216;BME280;34005;48.844;10.098;2023-04-03T06:15:27;97416.97;;;3.79;59.43
48216;BME280;34005;48.844;10.098;2023-04-03T06:17:55;97416.72;;;3.82;59.21
48216;BME280;34005;48.844;10.098;2023-04-03T06:20:22;97430.34;;;3.84;59.66
48216;BME280;34005;48.844;10.098;2023-04-03T06:22:50;97425.06;;;3.85;59.51
48216;BME280;34005;48.844;10.098;2023-04-03T06:25:18;97428.22;;;3.89;59.67
48216;BME280;34005;48.844;10.098;2023-04-03T06:27:47;97429.75;;;3.91;59.30
48216;BME280;34005;48.844;10.098;2023-04-03T06:30:14;97423.63;;;3.92;59.23
48216;BME280;34005;48.844;10.098;2023-04-03T06:32:42;97439.00;;;3.94;59.86
48216;BME280;34005;48.844;10.098;2023-04-03T06:35:10;97434.66;;;3.95;59.62
48216;BME280;34005;48.844;10.098;2023-04-03T06:37:37;97444.75;;;3.98;59.63
48216;BME280;34005;48.844;10.098;2023-04-03T06:40:07;97439.81;;;3.95;59.86
48216;BME280;34005;48.844;10.098;2023-04-03T06:42:37;97437.34;;;3.93;59.77
48216;BME280;34005;48.844;10.098;2023-04-03T06:45:07;97441.09;;;3.89;59.74
48216;BME280;34005;48.844;10.098;2023-04-03T06:47:35;97448.16;;;3.87;59.53
48216;BME280;34005;48.844;10.098;2023-04-03T06:50:03;97440.91;;;3.81;59.64
48216;BME280;34005;48.844;10.098;2023-04-03T06:52:32;97443.50;;;3.81;60.30
48216;BME280;34005;48.844;10.098;2023-04-03T06:55:00;97445.72;;;3.85;60.01
48216;BME280;34005;48.844;10.098;2023-04-03T06:57:28;97443.84;;;3.87;59.98
48216;BME280;34005;48.844;10.098;2023-04-03T06:59:55;97446.28;;;3.89;60.17
48216;BME280;34005;48.844;10.098;2023-04-03T07:02:24;97445.25;;;3.91;60.07
48216;BME280;34005;48.844;10.098;2023-04-03T07:04:52;97448.16;;;3.98;60.44
48216;BME280;34005;48.844;10.098;2023-04-03T07:07:20;97451.19;;;4.03;60.37
48216;BME280;34005;48.844;10.098;2023-04-03T07:09:48;97457.50;;;4.10;59.98
48216;BME280;34005;48.844;10.098;2023-04-03T07:12:16;97457.28;;;4.13;59.82
48216;BME280;34005;48.844;10.098;2023-04-03T07:14:43;97459.50;;;4.18;59.81
48216;BME280;34005;48.844;10.098;2023-04-03T07:17:11;97465.94;;;4.24;60.24
48216;BME280;34005;48.844;10.098;2023-04-03T07:19:39;97465.72;;;4.27;59.57
48216;BME280;34005;48.844;10.098;2023-04-03T07:22:07;97473.00;;;4.33;59.49
48216;BME280;34005;48.844;10.098;2023-04-03T07:24:35;97464.16;;;4.36;59.66
48216;BME280;34005;48.844;10.098;2023-04-03T07:27:03;97470.97;;;4.37;59.67
48216;BME280;34005;48.844;10.098;2023-04-03T07:29:30;97469.66;;;4.42;59.55
48216;BME280;34005;48.844;10.098;2023-04-03T07:31:58;97470.22;;;4.46;59.66
48216;BME280;34005;48.844;10.098;2023-04-03T07:34:26;97474.09;;;4.51;59.73
48216;BME280;34005;48.844;10.098;2023-04-03T07:36:55;97469.38;;;4.57;59.78
48216;BME280;34005;48.844;10.098;2023-04-03T07:39:23;97473.25;;;4.62;59.43
48216;BME280;34005;48.844;10.098;2023-04-03T07:41:50;97473.13;;;4.64;59.50
48216;BME280;34005;48.844;10.098;2023-04-03T07:44:18;97483.31;;;4.65;59.32
48216;BME280;34005;48.844;10.098;2023-04-03T07:46:45;97482.41;;;4.66;59.29
48216;BME280;34005;48.844;10.098;2023-04-03T07:49:13;97491.06;;;4.65;59.45
48216;BME280;34005;48.844;10.098;2023-04-03T07:51:40;97492.16;;;4.63;59.81
48216;BME280;34005;48.844;10.098;2023-04-03T07:54:09;97486.97;;;4.63;59.98
48216;BME280;34005;48.844;10.098;2023-04-03T07:56:37;97483.69;;;4.61;59.35
48216;BME280;34005;48.844;10.098;2023-04-03T07:59:05;97493.09;;;4.62;60.04
48216;BME280;34005;48.844;10.098;2023-04-03T08:01:33;97489.34;;;4.66;59.47
48216;BME280;34005;48.844;10.098;2023-04-03T08:04:00;97489.06;;;4.69;59.90
48216;BME280;34005;48.844;10.098;2023-04-03T08:06:28;97498.22;;;4.73;59.90
48216;BME280;34005;48.844;10.098;2023-04-03T08:09:13;97496.34;;;4.75;59.38
48216;BME280;34005;48.844;10.098;2023-04-03T08:11:42;97486.25;;;4.72;59.18
48216;BME280;34005;48.844;10.098;2023-04-03T08:14:10;97493.06;;;4.73;59.58
48216;BME280;34005;48.844;10.098;2023-04-03T08:16:43;97501.25;;;4.78;59.87
48216;BME280;34005;48.844;10.098;2023-04-03T08:19:11;97494.91;;;4.82;59.66
48216;BME280;34005;48.844;10.098;2023-04-03T08:21:51;97488.81;;;4.83;59.74
48216;BME280;34005;48.844;10.098;2023-04-03T08:24:20;97488.53;;;4.86;59.40
48216;BME280;34005;48.844;10.098;2023-04-03T08:26:47;97492.22;;;5.05;59.39
48216;BME280;34005;48.844;10.098;2023-04-03T08:29:15;97490.31;;;5.07;58.80
48216;BME280;34005;48.844;10.098;2023-04-03T08:31:42;97498.78;;;5.09;58.63
48216;BME280;34005;48.844;10.098;2023-04-03T08:34:11;97497.47;;;5.14;58.71
48216;BME280;34005;48.844;10.098;2023-04-03T08:36:39;97497.34;;;5.16;58.46
48216;BME280;34005;48.844;10.098;2023-04-03T08:39:07;97496.50;;;5.15;58.74
48216;BME280;34005;48.844;10.098;2023-04-03T08:41:38;97500.97;;;5.13;58.62
48216;BME280;34005;48.844;10.098;2023-04-03T08:44:15;97494.06;;;5.14;57.95
48216;BME280;34005;48.844;10.098;2023-04-03T08:46:54;97499.94;;;5.16;58.20
48216;BME280;34005;48.844;10.098;2023-04-03T08:49:27;97504.16;;;5.17;58.17
48216;BME280;34005;48.844;10.098;2023-04-03T08:51:56;97503.19;;;5.18;58.32
48216;BME280;34005;48.844;10.098;2023-04-03T08:54:30;97503.19;;;5.18;58.12
48216;BME280;34005;48.844;10.098;2023-04-03T08:57:04;97500.59;;;5.18;57.86
48216;BME280;34005;48.844;10.098;2023-04-03T08:59:33;97504.84;;;5.19;58.08
48216;BME280;34005;48.844;10.098;2023-04-03T09:02:04;97503.66;;;5.23;57.59
48216;BME280;34005;48.844;10.098;2023-04-03T09:04:33;97506.94;;;5.25;57.72
48216;BME280;34005;48.844;10.098;2023-04-03T09:07:06;97503.84;;;5.31;57.38
48216;BME280;34005;48.844;10.098;2023-04-03T09:09:37;97504.97;;;5.39;57.41
48216;BME280;34005;48.844;10.098;2023-04-03T09:12:16;97504.47;;;5.45;56.38
48216;BME280;34005;48.844;10.098;2023-04-03T09:14:52;97502.69;;;5.45;56.70
48216;BME280;34005;48.844;10.098;2023-04-03T09:17:35;97502.59;;;5.47;56.26
48216;BME280;34005;48.844;10.098;2023-04-03T09:20:14;97512.16;;;5.56;56.15
48216;BME280;34005;48.844;10.098;2023-04-03T09:22:46;97519.41;;;5.62;56.20
48216;BME280;34005;48.844;10.098;2023-04-03T09:25:20;97507.59;;;5.69;55.56
48216;BME280;34005;48.844;10.098;2023-04-03T09:27:51;97507.91;;;5.76;55.30
48216;BME280;34005;48.844;10.098;2023-04-03T09:30:21;97503.03;;;5.83;55.79
48216;BME280;34005;48.844;10.098;2023-04-03T09:32:51;97498.47;;;5.96;55.66
48216;BME280;34005;48.844;10.098;2023-04-03T09:35:22;97503.56;;;6.07;55.15
48216;BME280;34005;48.844;10.098;2023-04-03T09:38:16;97493.38;;;6.15;54.35
48216;BME280;34005;48.844;10.098;2023-04-03T09:40:45;97496.53;;;6.29;54.58
48216;BME280;34005;48.844;10.098;2023-04-03T09:43:28;97496.94;;;6.34;53.74
48216;BME280;34005;48.844;10.098;2023-04-03T09:46:15;97492.19;;;6.39;54.41
48216;BME280;34005;48.844;10.098;2023-04-03T09:48:51;97498.06;;;6.41;53.74
48216;BME280;34005;48.844;10.098;2023-04-03T09:51:34;97497.78;;;6.44;53.91
48216;BME280;34005;48.844;10.098;2023-04-03T09:54:30;97496.84;;;6.45;51.02
48216;BME280;34005;48.844;10.098;2023-04-03T09:57:01;97504.47;;;6.47;52.29
48216;BME280;34005;48.844;10.098;2023-04-03T09:59:31;97498.88;;;6.51;52.77
48216;BME280;34005;48.844;10.098;2023-04-03T10:02:00;97500.13;;;6.47;52.67
48216;BME280;34005;48.844;10.098;2023-04-03T10:04:38;97494.50;;;6.42;51.76
48216;BME280;34005;48.844;10.098;2023-04-03T10:10:20;97498.34;;;6.57;51.42
48216;BME280;34005;48.844;10.098;2023-04-03T10:13:04;97503.00;;;6.73;51.92
48216;BME280;34005;48.844;10.098;2023-04-03T10:15:36;97491.84;;;6.83;51.89
48216;BME280;34005;48.844;10.098;2023-04-03T10:18:15;97490.75;;;6.85;51.93
48216;BME280;34005;48.844;10.098;2023-04-03T10:20:51;97479.56;;;6.85;51.44
48216;BME280;34005;48.844;10.098;2023-04-03T10:23:24;97483.09;;;6.84;51.24
48216;BME280;34005;48.844;10.098;2023-04-03T10:26:05;97495.25;;;6.83;50.88
48216;BME280;34005;48.844;10.098;2023-04-03T10:28:40;97485.69;;;6.74;50.95
48216;BME280;34005;48.844;10.098;2023-04-03T10:31:16;97487.47;;;6.64;51.21
48216;BME280;34005;48.844;10.098;2023-04-03T10:33:56;97484.47;;;6.58;51.11
48216;BME280;34005;48.844;10.098;2023-04-03T10:36:36;97481.31;;;6.55;50.96
48216;BME280;34005;48.844;10.098;2023-04-03T10:39:14;97483.09;;;6.54;50.64
48216;BME280;34005;48.844;10.098;2023-04-03T10:41:55;97482.13;;;6.55;49.94
48216;BME280;34005;48.844;10.098;2023-04-03T10:44:59;97483.63;;;6.58;49.10
48216;BME280;34005;48.844;10.098;2023-04-03T10:47:32;97482.97;;;6.56;49.56
48216;BME280;34005;48.844;10.098;2023-04-03T10:52:57;97483.34;;;6.51;49.79
48216;BME280;34005;48.844;10.098;2023-04-03T10:55:35;97485.00;;;6.52;49.14
48216;BME280;34005;48.844;10.098;2023-04-03T10:58:06;97488.28;;;6.54;49.59
48216;BME280;34005;48.844;10.098;2023-04-03T11:00:40;97484.72;;;6.55;49.91
48216;BME280;34005;48.844;10.098;2023-04-03T11:03:13;97475.44;;;6.53;49.32
48216;BME280;34005;48.844;10.098;2023-04-03T11:05:44;97479.13;;;6.50;48.88
48216;BME280;34005;48.844;10.098;2023-04-03T11:08:21;97474.06;;;6.49;48.78
48216;BME280;34005;48.844;10.098;2023-04-03T11:10:54;97469.69;;;6.49;48.69
48216;BME280;34005;48.844;10.098;2023-04-03T11:13:27;97478.84;;;6.53;48.39
48216;BME280;34005;48.844;10.098;2023-04-03T11:15:57;97468.91;;;6.58;48.00
48216;BME280;34005;48.844;10.098;2023-04-03T11:18:29;97465.63;;;6.66;47.47
48216;BME280;34005;48.844;10.098;2023-04-03T11:21:02;97467.41;;;6.75;47.82
48216;BME280;34005;48.844;10.098;2023-04-03T11:23:35;97463.72;;;6.78;48.31
48216;BME280;34005;48.844;10.098;2023-04-03T11:26:17;97462.88;;;6.77;48.73
48216;BME280;34005;48.844;10.098;2023-04-03T11:28:46;97464.13;;;6.83;48.38
48216;BME280;34005;48.844;10.098;2023-04-03T11:31:35;97455.53;;;6.83;47.71
48216;BME280;34005;48.844;10.098;2023-04-03T11:34:14;97457.44;;;6.80;48.12
48216;BME280;34005;48.844;10.098;2023-04-03T11:36:48;97467.00;;;6.80;48.65
48216;BME280;34005;48.844;10.098;2023-04-03T11:39:22;97456.06;;;6.86;48.27
48216;BME280;34005;48.844;10.098;2023-04-03T11:41:51;97462.09;;;6.87;47.42
48216;BME280;34005;48.844;10.098;2023-04-03T11:44:36;97460.97;;;6.79;47.95
48216;BME280;34005;48.844;10.098;2023-04-03T11:47:05;97458.25;;;6.81;48.07
48216;BME280;34005;48.844;10.098;2023-04-03T11:50:04;97453.22;;;6.89;47.37
48216;BME280;34005;48.844;10.098;2023-04-03T11:53:00;97460.97;;;6.99;46.50
48216;BME280;34005;48.844;10.098;2023-04-03T11:55:43;97443.25;;;6.94;46.21
48216;BME280;34005;48.844;10.098;2023-04-03T11:58:15;97441.31;;;6.96;46.55
48216;BME280;34005;48.844;10.098;2023-04-03T12:00:59;97437.63;;;6.99;46.42
48216;BME280;34005;48.844;10.098;2023-04-03T12:07:08;97450.75;;;7.07;46.79
48216;BME280;34005;48.844;10.098;2023-04-03T12:10:14;97451.69;;;7.16;45.66
48216;BME280;34005;48.844;10.098;2023-04-03T12:12:57;97452.50;;;7.16;46.05
48216;BME280;34005;48.844;10.098;2023-04-03T12:15:44;97442.13;;;7.16;44.45
48216;BME280;34005;48.844;10.098;2023-04-03T12:21:21;97438.31;;;7.11;45.23
48216;BME280;34005;48.844;10.098;2023-04-03T12:24:04;97441.84;;;7.10;44.95
48216;BME280;34005;48.844;10.098;2023-04-03T12:26:36;97436.41;;;7.13;45.40
48216;BME280;34005;48.844;10.098;2023-04-03T12:29:17;97437.72;;;7.17;45.58
48216;BME280;34005;48.844;10.098;2023-04-03T12:31:55;97438.00;;;7.23;45.67
48216;BME280;34005;48.844;10.098;2023-04-03T12:34:41;97430.88;;;7.26;44.81
48216;BME280;34005;48.844;10.098;2023-04-03T12:37:24;97436.06;;;7.26;45.06
48216;BME280;34005;48.844;10.098;2023-04-03T12:40:06;97434.06;;;7.19;44.50
48216;BME280;34005;48.844;10.098;2023-04-03T12:42:57;97435.97;;;7.08;44.24
48216;BME280;34005;48.844;10.098;2023-04-03T12:45:40;97427.13;;;7.00;44.58
48216;BME280;34005;48.844;10.098;2023-04-03T12:48:14;97431.91;;;6.95;44.93
48216;BME280;34005;48.844;10.098;2023-04-03T12:50:45;97429.59;;;6.92;44.88
48216;BME280;34005;48.844;10.098;2023-04-03T12:53:16;97427.97;;;6.91;45.19
48216;BME280;34005;48.844;10.098;2023-04-03T12:55:45;97440.25;;;6.89;45.77
48216;BME280;34005;48.844;10.098;2023-04-03T12:58:14;97433.69;;;6.85;45.33
48216;BME280;34005;48.844;10.098;2023-04-03T13:00:42;97423.88;;;6.79;45.53
48216;BME280;34005;48.844;10.098;2023-04-03T13:03:22;97422.50;;;6.75;44.85
48216;BME280;34005;48.844;10.098;2023-04-03T13:05:50;97418.53;;;6.71;45.82
48216;BME280;34005;48.844;10.098;2023-04-03T13:08:19;97415.94;;;6.71;45.38
48216;BME280;34005;48.844;10.098;2023-04-03T13:10:52;97418.97;;;6.76;45.74
48216;BME280;34005;48.844;10.098;2023-04-03T13:13:22;97417.44;;;6.83;45.48
48216;BME280;34005;48.844;10.098;2023-04-03T13:15:50;97411.16;;;6.86;45.55
48216;BME280;34005;48.844;10.098;2023-04-03T13:18:23;97413.50;;;6.89;45.17
48216;BME280;34005;48.844;10.098;2023-04-03T13:20:52;97416.91;;;6.89;45.79
48216;BME280;34005;48.844;10.098;2023-04-03T13:23:24;97417.97;;;6.96;45.72
48216;BME280;34005;48.844;10.098;2023-04-03T13:25:52;97418.38;;;7.01;45.46
48216;BME280;34005;48.844;10.098;2023-04-03T13:28:22;97423.13;;;7.06;45.02
48216;BME280;34005;48.844;10.098;2023-04-03T13:30:58;97409.91;;;6.99;44.43
48216;BME280;34005;48.844;10.098;2023-04-03T13:33:32;97411.16;;;6.95;45.50
48216;BME280;34005;48.844;10.098;2023-04-03T13:36:03;97412.78;;;6.96;45.48
48216;BME280;34005;48.844;10.098;2023-04-03T13:38:33;97416.75;;;7.00;44.96